sensor_id;sensor_type;location;lat;lon;timestamp;pressure;altitude;pressure_sealevel;temperature;humidity
48035;BME280;33812;46.480;6.834;2023-02-17T00:01:49;94826.13;;;22.40;31.44
48035;BME280;33812;46.480;6.834;2023-02-17T00:06:05;94821.34;;;22.40;31.55
48035;BME280;33812;46.480;6.834;2023-02-17T00:10:07;94830.50;;;22.37;31.31
48035;BME280;33812;46.480;6.834;2023-02-17T00:14:11;94829.66;;;22.40;31.48
48035;BME280;33812;46.480;6.834;2023-02-17T00:18:12;94831.28;;;22.38;31.53
48035;BME280;33812;46.480;6.834;2023-02-17T00:22:17;94827.75;;;22.37;31.11
48035;BME280;33812;46.480;6.834;2023-02-17T00:26:24;94838.41;;;22.39;31.33
48035;BME280;33812;46.480;6.834;2023-02-17T00:30:26;94830.50;;;22.37;31.19
48035;BME280;33812;46.480;6.834;2023-02-17T00:34:28;94832.91;;;22.35;31.29
48035;BME280;33812;46.480;6.834;2023-02-17T00:38:31;94834.91;;;22.34;31.13
48035;BME280;33812;46.480;6.834;2023-02-17T00:42:55;94832.53;;;22.33;31.38
48035;BME280;33812;46.480;6.834;2023-02-17T00:46:57;94834.13;;;22.34;31.32
48035;BME280;33812;46.480;6.834;2023-02-17T00:51:08;94846.38;;;22.33;31.40
48035;BME280;33812;46.480;6.834;2023-02-17T00:55:12;94848.75;;;22.34;31.13
48035;BME280;33812;46.480;6.834;2023-02-17T00:59:21;94838.44;;;22.35;31.15
48035;BME280;33812;46.480;6.834;2023-02-17T01:03:24;94840.44;;;22.34;31.24
48035;BME280;33812;46.480;6.834;2023-02-17T01:07:35;94838.06;;;22.33;31.23
48035;BME280;33812;46.480;6.834;2023-02-17T01:11:40;94836.09;;;22.33;31.13
48035;BME280;33812;46.480;6.834;2023-02-17T01:15:45;94835.31;;;22.33;31.25
48035;BME280;33812;46.480;6.834;2023-02-17T01:20:07;94835.31;;;22.33;31.18
48035;BME280;33812;46.480;6.834;2023-02-17T01:24:11;94834.53;;;22.32;31.06
48035;BME280;33812;46.480;6.834;2023-02-17T01:28:20;94836.53;;;22.32;31.16
48035;BME280;33812;46.480;6.834;2023-02-17T01:32:24;94826.66;;;22.31;31.06
48035;BME280;33812;46.480;6.834;2023-02-17T01:36:26;94814.00;;;22.30;31.06
48035;BME280;33812;46.480;6.834;2023-02-17T01:40:32;94822.69;;;22.32;31.11
48035;BME280;33812;46.480;6.834;2023-02-17T01:49:23;94812.44;;;22.29;31.07
48035;BME280;33812;46.480;6.834;2023-02-17T01:53:32;94806.47;;;22.30;31.09
48035;BME280;33812;46.480;6.834;2023-02-17T01:57:38;94808.94;;;22.25;30.98
48035;BME280;33812;46.480;6.834;2023-02-17T02:01:41;94810.88;;;22.28;30.97
48035;BME280;33812;46.480;6.834;2023-02-17T02:05:51;94816.78;;;22.30;30.98
48035;BME280;33812;46.480;6.834;2023-02-17T02:09:56;94821.94;;;22.28;30.94
48035;BME280;33812;46.480;6.834;2023-02-17T02:13:59;94817.25;;;22.25;31.05
48035;BME280;33812;46.480;6.834;2023-02-17T02:18:14;94823.56;;;22.25;31.00
48035;BME280;33812;46.480;6.834;2023-02-17T02:27:38;94816.06;;;22.26;30.96
48035;BME280;33812;46.480;6.834;2023-02-17T02:31:55;94816.81;;;22.26;30.96
48035;BME280;33812;46.480;6.834;2023-02-17T02:36:18;94813.69;;;22.24;30.96
48035;BME280;33812;46.480;6.834;2023-02-17T02:40:31;94814.47;;;22.25;30.80
48035;BME280;33812;46.480;6.834;2023-02-17T02:44:37;94810.16;;;22.24;31.11
48035;BME280;33812;46.480;6.834;2023-02-17T02:48:39;94814.09;;;22.22;31.12
48035;BME280;33812;46.480;6.834;2023-02-17T02:52:50;94805.81;;;22.22;30.80
48035;BME280;33812;46.480;6.834;2023-02-17T02:57:18;94814.53;;;22.21;30.89
48035;BME280;33812;46.480;6.834;2023-02-17T03:01:33;94804.63;;;22.24;31.01
48035;BME280;33812;46.480;6.834;2023-02-17T03:05:45;94811.34;;;22.22;30.97
48035;BME280;33812;46.480;6.834;2023-02-17T03:09:56;94808.22;;;22.20;30.88
48035;BME280;33812;46.480;6.834;2023-02-17T03:14:00;94809.38;;;22.23;30.85
48035;BME280;33812;46.480;6.834;2023-02-17T03:18:02;94808.56;;;22.22;31.08
48035;BME280;33812;46.480;6.834;2023-02-17T03:22:08;94807.03;;;22.21;30.87
48035;BME280;33812;46.480;6.834;2023-02-17T03:26:19;94815.31;;;22.21;30.84
48035;BME280;33812;46.480;6.834;2023-02-17T03:30:28;94813.78;;;22.20;30.90
48035;BME280;33812;46.480;6.834;2023-02-17T03:34:31;94812.56;;;22.21;30.85
48035;BME280;33812;46.480;6.834;2023-02-17T03:38:35;94820.44;;;22.23;30.92
48035;BME280;33812;46.480;6.834;2023-02-17T03:42:44;94820.50;;;22.19;30.92
48035;BME280;33812;46.480;6.834;2023-02-17T03:46:47;94812.19;;;22.19;30.70
48035;BME280;33812;46.480;6.834;2023-02-17T03:50:50;94818.94;;;22.18;30.83
48035;BME280;33812;46.480;6.834;2023-02-17T03:54:54;94815.38;;;22.18;30.80
48035;BME280;33812;46.480;6.834;2023-02-17T03:58:57;94811.06;;;22.17;30.78
48035;BME280;33812;46.480;6.834;2023-02-17T04:03:00;94818.56;;;22.16;30.72
48035;BME280;33812;46.480;6.834;2023-02-17T04:07:02;94818.16;;;22.18;30.51
48035;BME280;33812;46.480;6.834;2023-02-17T04:11:14;94818.94;;;22.18;30.65
48035;BME280;33812;46.480;6.834;2023-02-17T04:15:17;94823.75;;;22.14;30.55
48035;BME280;33812;46.480;6.834;2023-02-17T04:19:19;94818.19;;;22.14;30.59
48035;BME280;33812;46.480;6.834;2023-02-17T04:23:22;94823.75;;;22.14;30.56
48035;BME280;33812;46.480;6.834;2023-02-17T04:27:24;94820.97;;;22.14;30.51
48035;BME280;33812;46.480;6.834;2023-02-17T04:31:27;94830.84;;;22.15;30.57
48035;BME280;33812;46.480;6.834;2023-02-17T04:35:31;94823.75;;;22.14;30.62
48035;BME280;33812;46.480;6.834;2023-02-17T04:39:33;94819.78;;;22.15;30.56
48035;BME280;33812;46.480;6.834;2023-02-17T04:43:35;94824.94;;;22.13;30.37
48035;BME280;33812;46.480;6.834;2023-02-17T04:47:39;94819.41;;;22.13;30.36
48035;BME280;33812;46.480;6.834;2023-02-17T04:51:50;94815.06;;;22.12;30.23
48035;BME280;33812;46.480;6.834;2023-02-17T04:55:59;94816.28;;;22.11;30.52
48035;BME280;33812;46.480;6.834;2023-02-17T05:00:01;94809.94;;;22.10;30.40
48035;BME280;33812;46.480;6.834;2023-02-17T05:04:05;94805.56;;;22.13;30.42
48035;BME280;33812;46.480;6.834;2023-02-17T05:08:08;94802.44;;;22.11;30.32
48035;BME280;33812;46.480;6.834;2023-02-17T05:12:10;94807.97;;;22.11;30.49
48035;BME280;33812;46.480;6.834;2023-02-17T05:16:13;94806.41;;;22.10;30.51
48035;BME280;33812;46.480;6.834;2023-02-17T05:20:17;94814.72;;;22.10;30.21
48035;BME280;33812;46.480;6.834;2023-02-17T05:24:21;94814.72;;;22.10;30.33
48035;BME280;33812;46.480;6.834;2023-02-17T05:28:23;94815.91;;;22.09;30.58
48035;BME280;33812;46.480;6.834;2023-02-17T05:32:27;94813.94;;;22.09;30.51
48035;BME280;33812;46.480;6.834;2023-02-17T05:36:30;94812.78;;;22.07;30.02
48035;BME280;33812;46.480;6.834;2023-02-17T05:40:32;94804.94;;;22.02;29.67
48035;BME280;33812;46.480;6.834;2023-02-17T05:44:42;94813.97;;;22.06;29.70
48035;BME280;33812;46.480;6.834;2023-02-17T05:48:43;94810.06;;;22.03;29.69
48035;BME280;33812;46.480;6.834;2023-02-17T05:52:46;94806.09;;;22.04;29.58
48035;BME280;33812;46.480;6.834;2023-02-17T05:56:54;94810.06;;;22.03;29.69
48035;BME280;33812;46.480;6.834;2023-02-17T06:00:56;94814.81;;;22.03;29.82
48035;BME280;33812;46.480;6.834;2023-02-17T06:04:58;94815.16;;;22.05;30.95
48035;BME280;33812;46.480;6.834;2023-02-17T06:09:02;94814.34;;;22.08;31.56
48035;BME280;33812;46.480;6.834;2023-02-17T06:13:04;94813.13;;;22.09;31.67
48035;BME280;33812;46.480;6.834;2023-02-17T06:17:09;94809.19;;;22.10;31.92
48035;BME280;33812;46.480;6.834;2023-02-17T06:21:11;94810.00;;;22.07;32.04
48035;BME280;33812;46.480;6.834;2023-02-17T06:25:14;94823.75;;;22.14;32.23
48035;BME280;33812;46.480;6.834;2023-02-17T06:29:34;94821.38;;;22.13;32.46
48035;BME280;33812;46.480;6.834;2023-02-17T06:33:41;94825.31;;;22.15;32.53
48035;BME280;33812;46.480;6.834;2023-02-17T06:37:43;94830.84;;;22.15;32.78
48035;BME280;33812;46.480;6.834;2023-02-17T06:41:48;94825.31;;;22.15;32.79
48035;BME280;33812;46.480;6.834;2023-02-17T06:45:52;94839.16;;;22.15;32.19
48035;BME280;33812;46.480;6.834;2023-02-17T06:49:56;94839.16;;;22.15;32.28
48035;BME280;33812;46.480;6.834;2023-02-17T06:53:57;94843.91;;;22.15;32.16
48035;BME280;33812;46.480;6.834;2023-02-17T06:58:01;94849.06;;;22.13;32.47
48035;BME280;33812;46.480;6.834;2023-02-17T07:02:04;94849.28;;;21.98;31.78
48035;BME280;33812;46.480;6.834;2023-02-17T07:06:05;94857.06;;;22.07;31.73
48035;BME280;33812;46.480;6.834;2023-02-17T07:10:08;94858.66;;;22.08;31.37
48035;BME280;33812;46.480;6.834;2023-02-17T07:14:11;94865.75;;;22.09;32.21
48035;BME280;33812;46.480;6.834;2023-02-17T07:18:13;94878.41;;;22.10;33.39
48035;BME280;33812;46.480;6.834;2023-02-17T07:22:17;94876.81;;;22.09;32.98
48035;BME280;33812;46.480;6.834;2023-02-17T07:26:19;94870.84;;;22.10;32.93
48035;BME280;33812;46.480;6.834;2023-02-17T07:30:22;94880.75;;;22.12;33.24
48035;BME280;33812;46.480;6.834;2023-02-17T07:34:24;94885.53;;;22.07;33.32
48035;BME280;33812;46.480;6.834;2023-02-17T07:38:27;94888.69;;;22.09;32.47
48035;BME280;33812;46.480;6.834;2023-02-17T07:42:30;94890.66;;;22.09;32.45
48035;BME280;33812;46.480;6.834;2023-02-17T07:46:35;94898.13;;;22.12;32.50
48035;BME280;33812;46.480;6.834;2023-02-17T07:50:39;94891.44;;;22.09;31.89
48035;BME280;33812;46.480;6.834;2023-02-17T07:54:42;94900.16;;;22.08;32.04
48035;BME280;33812;46.480;6.834;2023-02-17T07:58:44;94908.47;;;22.08;32.08
48035;BME280;33812;46.480;6.834;2023-02-17T08:02:56;94904.50;;;22.09;31.96
48035;BME280;33812;46.480;6.834;2023-02-17T08:07:01;94908.84;;;22.10;31.65
48035;BME280;33812;46.480;6.834;2023-02-17T08:11:04;94898.97;;;22.09;31.90
48035;BME280;33812;46.480;6.834;2023-02-17T08:15:23;94908.44;;;22.12;31.93
48035;BME280;33812;46.480;6.834;2023-02-17T08:19:28;94904.91;;;22.07;31.85
48035;BME280;33812;46.480;6.834;2023-02-17T08:23:31;94912.34;;;22.14;31.96
48035;BME280;33812;46.480;6.834;2023-02-17T08:27:34;94912.38;;;22.10;31.74
48035;BME280;33812;46.480;6.834;2023-02-17T08:31:37;94916.38;;;22.09;31.58
48035;BME280;33812;46.480;6.834;2023-02-17T08:35:41;94922.69;;;22.10;32.07
48035;BME280;33812;46.480;6.834;2023-02-17T08:39:44;94929.00;;;22.10;31.76
48035;BME280;33812;46.480;6.834;2023-02-17T08:43:53;94930.56;;;22.12;31.99
48035;BME280;33812;46.480;6.834;2023-02-17T08:47:57;94931.75;;;22.10;31.67
48035;BME280;33812;46.480;6.834;2023-02-17T08:52:01;94933.75;;;22.10;31.66
48035;BME280;33812;46.480;6.834;2023-02-17T08:56:04;94925.03;;;22.12;31.58
48035;BME280;33812;46.480;6.834;2023-02-17T09:00:09;94916.72;;;22.12;31.75
48035;BME280;33812;46.480;6.834;2023-02-17T09:04:12;94922.28;;;22.12;31.61
48035;BME280;33812;46.480;6.834;2023-02-17T09:08:17;94917.91;;;22.10;31.55
48035;BME280;33812;46.480;6.834;2023-02-17T09:12:25;94927.00;;;22.11;31.70
48035;BME280;33812;46.480;6.834;2023-02-17T09:16:30;94929.38;;;22.13;31.83
48035;BME280;33812;46.480;6.834;2023-02-17T09:20:33;94931.72;;;22.14;31.57
48035;BME280;33812;46.480;6.834;2023-02-17T09:24:36;94940.81;;;22.15;31.66
48035;BME280;33812;46.480;6.834;2023-02-17T09:28:39;94937.25;;;22.14;31.83
48035;BME280;33812;46.480;6.834;2023-02-17T09:32:47;94955.78;;;22.17;31.49
48035;BME280;33812;46.480;6.834;2023-02-17T09:36:49;94939.22;;;22.14;31.13
48035;BME280;33812;46.480;6.834;2023-02-17T09:40:52;94965.69;;;22.18;31.47
48035;BME280;33812;46.480;6.834;2023-02-17T09:44:58;94959.34;;;22.18;31.39
48035;BME280;33812;46.480;6.834;2023-02-17T09:49:07;94955.44;;;22.15;31.74
48035;BME280;33812;46.480;6.834;2023-02-17T09:53:20;94966.53;;;22.15;33.47
48035;BME280;33812;46.480;6.834;2023-02-17T09:57:27;94966.88;;;22.17;33.71
48035;BME280;33812;46.480;6.834;2023-02-17T10:01:31;94967.25;;;22.19;33.58
48035;BME280;33812;46.480;6.834;2023-02-17T10:05:37;94967.66;;;22.18;33.56
48035;BME280;33812;46.480;6.834;2023-02-17T10:09:46;94963.63;;;22.22;33.25
48035;BME280;33812;46.480;6.834;2023-02-17T10:13:50;94969.59;;;22.21;33.20
48035;BME280;33812;46.480;6.834;2023-02-17T10:18:01;94970.38;;;22.21;33.31
48035;BME280;33812;46.480;6.834;2023-02-17T10:22:15;94975.91;;;22.21;33.21
48035;BME280;33812;46.480;6.834;2023-02-17T10:26:25;94971.53;;;22.24;32.97
48035;BME280;33812;46.480;6.834;2023-02-17T10:30:43;94977.84;;;22.25;33.05
48035;BME280;33812;46.480;6.834;2023-02-17T10:35:13;94971.13;;;22.26;32.89
48035;BME280;33812;46.480;6.834;2023-02-17T10:39:26;94964.38;;;22.27;33.03
48035;BME280;33812;46.480;6.834;2023-02-17T10:43:34;94959.63;;;22.27;32.75
48035;BME280;33812;46.480;6.834;2023-02-17T10:47:43;94967.16;;;22.27;32.82
48035;BME280;33812;46.480;6.834;2023-02-17T10:51:45;94967.53;;;22.29;32.42
48035;BME280;33812;46.480;6.834;2023-02-17T10:55:54;94962.75;;;22.29;32.44
48035;BME280;33812;46.480;6.834;2023-02-17T11:00:03;94960.34;;;22.31;32.35
48035;BME280;33812;46.480;6.834;2023-02-17T11:04:08;94960.31;;;22.35;32.65
48035;BME280;33812;46.480;6.834;2023-02-17T11:08:26;94954.75;;;22.35;32.97
48035;BME280;33812;46.480;6.834;2023-02-17T11:12:41;94944.47;;;22.36;32.74
48035;BME280;33812;46.480;6.834;2023-02-17T11:16:53;94938.16;;;22.35;32.26
48035;BME280;33812;46.480;6.834;2023-02-17T11:21:05;94934.97;;;22.37;32.48
48035;BME280;33812;46.480;6.834;2023-02-17T11:25:20;94929.41;;;22.37;32.39
48035;BME280;33812;46.480;6.834;2023-02-17T11:33:37;94917.91;;;22.38;33.11
48035;BME280;33812;46.480;6.834;2023-02-17T11:37:42;94909.59;;;22.38;33.16
48035;BME280;33812;46.480;6.834;2023-02-17T11:41:46;94904.81;;;22.42;33.05
48035;BME280;33812;46.480;6.834;2023-02-17T11:45:57;94886.75;;;22.34;33.05
48035;BME280;33812;46.480;6.834;2023-02-17T11:50:21;94889.81;;;22.40;33.04
48035;BME280;33812;46.480;6.834;2023-02-17T11:54:35;94874.81;;;22.37;33.34
48035;BME280;33812;46.480;6.834;2023-02-17T11:58:56;94881.09;;;22.41;33.46
48035;BME280;33812;46.480;6.834;2023-02-17T12:03:42;94875.91;;;22.43;33.46
48035;BME280;33812;46.480;6.834;2023-02-17T12:08:11;94860.50;;;22.42;33.41
48035;BME280;33812;46.480;6.834;2023-02-17T12:12:50;94854.09;;;22.45;33.38
48035;BME280;33812;46.480;6.834;2023-02-17T12:17:00;94845.44;;;22.43;33.38
48035;BME280;33812;46.480;6.834;2023-02-17T12:21:08;94838.69;;;22.44;32.71
48035;BME280;33812;46.480;6.834;2023-02-17T12:25:21;94840.19;;;22.49;32.93
48035;BME280;33812;46.480;6.834;2023-02-17T12:29:41;94837.44;;;22.49;32.30
48035;BME280;33812;46.480;6.834;2023-02-17T12:33:58;94836.59;;;22.52;32.12
48035;BME280;33812;46.480;6.834;2023-02-17T12:38:09;94828.28;;;22.52;32.32
48035;BME280;33812;46.480;6.834;2023-02-17T12:42:19;94834.19;;;22.54;32.56
48035;BME280;33812;46.480;6.834;2023-02-17T12:46:32;94820.75;;;22.53;32.82
48035;BME280;33812;46.480;6.834;2023-02-17T12:50:46;94840.44;;;22.58;32.58
48035;BME280;33812;46.480;6.834;2023-02-17T12:55:02;94836.91;;;22.58;32.30
48035;BME280;33812;46.480;6.834;2023-02-17T12:59:13;94840.03;;;22.60;32.59
48035;BME280;33812;46.480;6.834;2023-02-17T13:03:17;94832.50;;;22.61;33.10
48035;BME280;33812;46.480;6.834;2023-02-17T13:07:30;94845.19;;;22.62;33.13
48035;BME280;33812;46.480;6.834;2023-02-17T13:11:37;94832.13;;;22.62;33.20
48035;BME280;33812;46.480;6.834;2023-02-17T13:15:44;94828.94;;;22.60;33.00
48035;BME280;33812;46.480;6.834;2023-02-17T13:20:06;94829.34;;;22.62;33.68
48035;BME280;33812;46.480;6.834;2023-02-17T13:24:31;94838.03;;;22.64;33.63
48035;BME280;33812;46.480;6.834;2023-02-17T13:28:34;94850.66;;;22.65;33.84
48035;BME280;33812;46.480;6.834;2023-02-17T13:32:40;94842.34;;;22.65;33.70
48035;BME280;33812;46.480;6.834;2023-02-17T13:36:43;94842.34;;;22.65;33.71
48035;BME280;33812;46.480;6.834;2023-02-17T13:40:45;94837.59;;;22.66;33.92
48035;BME280;33812;46.480;6.834;2023-02-17T13:44:50;94847.03;;;22.68;33.63
48035;BME280;33812;46.480;6.834;2023-02-17T13:49:03;94837.94;;;22.68;33.96
48035;BME280;33812;46.480;6.834;2023-02-17T13:57:31;94842.72;;;22.67;33.78
48035;BME280;33812;46.480;6.834;2023-02-17T14:01:36;94839.53;;;22.69;34.01
48035;BME280;33812;46.480;6.834;2023-02-17T14:05:42;94834.75;;;22.69;34.14
48035;BME280;33812;46.480;6.834;2023-02-17T14:09:52;94835.59;;;22.66;34.35
48035;BME280;33812;46.480;6.834;2023-02-17T14:13:58;94834.34;;;22.71;34.23
48035;BME280;33812;46.480;6.834;2023-02-17T14:18:11;94842.22;;;22.73;34.25
48035;BME280;33812;46.480;6.834;2023-02-17T14:22:24;94840.22;;;22.73;34.39
48035;BME280;33812;46.480;6.834;2023-02-17T14:26:37;94839.47;;;22.73;34.03
48035;BME280;33812;46.480;6.834;2023-02-17T14:30:41;94833.13;;;22.72;34.27
48035;BME280;33812;46.480;6.834;2023-02-17T14:34:44;94833.50;;;22.74;34.90
48035;BME280;33812;46.480;6.834;2023-02-17T14:38:53;94830.34;;;22.72;34.17
48035;BME280;33812;46.480;6.834;2023-02-17T14:42:55;94834.69;;;22.73;33.96
48035;BME280;33812;46.480;6.834;2023-02-17T14:46:59;94833.06;;;22.76;33.59
48035;BME280;33812;46.480;6.834;2023-02-17T14:51:00;94828.75;;;22.75;33.83
48035;BME280;33812;46.480;6.834;2023-02-17T14:55:08;94820.44;;;22.75;33.91
48035;BME280;33812;46.480;6.834;2023-02-17T14:59:13;94827.53;;;22.76;33.71
48035;BME280;33812;46.480;6.834;2023-02-17T15:03:16;94818.84;;;22.74;33.91
48035;BME280;33812;46.480;6.834;2023-02-17T15:07:18;94818.00;;;22.77;33.79
48035;BME280;33812;46.480;6.834;2023-02-17T15:11:27;94810.91;;;22.76;33.72
48035;BME280;33812;46.480;6.834;2023-02-17T15:15:30;94819.56;;;22.78;33.71
48035;BME280;33812;46.480;6.834;2023-02-17T15:19:35;94825.13;;;22.78;33.57
48035;BME280;33812;46.480;6.834;2023-02-17T15:23:39;94829.44;;;22.79;33.71
48035;BME280;33812;46.480;6.834;2023-02-17T15:27:41;94825.88;;;22.78;33.65
48035;BME280;33812;46.480;6.834;2023-02-17T15:31:44;94821.13;;;22.79;33.72
48035;BME280;33812;46.480;6.834;2023-02-17T15:35:50;94837.75;;;22.79;33.55
48035;BME280;33812;46.480;6.834;2023-02-17T15:39:53;94829.06;;;22.77;33.50
48035;BME280;33812;46.480;6.834;2023-02-17T15:44:12;94834.97;;;22.79;33.38
48035;BME280;33812;46.480;6.834;2023-02-17T15:48:21;94843.28;;;22.79;33.56
48035;BME280;33812;46.480;6.834;2023-02-17T15:52:25;94839.34;;;22.80;33.59
48035;BME280;33812;46.480;6.834;2023-02-17T15:56:29;94838.97;;;22.78;33.43
48035;BME280;33812;46.480;6.834;2023-02-17T16:00:51;94841.75;;;22.78;33.29
48035;BME280;33812;46.480;6.834;2023-02-17T16:04:57;94842.94;;;22.77;33.51
48035;BME280;33812;46.480;6.834;2023-02-17T16:09:15;94849.25;;;22.77;33.43
48035;BME280;33812;46.480;6.834;2023-02-17T16:13:21;94852.81;;;22.78;33.37
48035;BME280;33812;46.480;6.834;2023-02-17T16:17:27;94852.03;;;22.77;33.39
48035;BME280;33812;46.480;6.834;2023-02-17T16:21:31;94847.28;;;22.78;33.44
48035;BME280;33812;46.480;6.834;2023-02-17T16:25:42;94859.91;;;22.79;33.52
48035;BME280;33812;46.480;6.834;2023-02-17T16:29:47;94859.91;;;22.79;33.50
48035;BME280;33812;46.480;6.834;2023-02-17T16:33:49;94862.69;;;22.79;33.50
48035;BME280;33812;46.480;6.834;2023-02-17T16:38:00;94862.31;;;22.77;33.45
48035;BME280;33812;46.480;6.834;2023-02-17T16:42:04;94869.09;;;22.76;33.22
48035;BME280;33812;46.480;6.834;2023-02-17T16:46:06;94868.72;;;22.74;32.84
48035;BME280;33812;46.480;6.834;2023-02-17T16:50:22;94866.75;;;22.74;32.74
48035;BME280;33812;46.480;6.834;2023-02-17T16:54:27;94872.66;;;22.76;33.29
48035;BME280;33812;46.480;6.834;2023-02-17T16:58:31;94871.84;;;22.76;33.00
48035;BME280;33812;46.480;6.834;2023-02-17T17:02:32;94876.59;;;22.75;33.25
48035;BME280;33812;46.480;6.834;2023-02-17T17:06:36;94882.16;;;22.75;33.61
48035;BME280;33812;46.480;6.834;2023-02-17T17:10:38;94886.50;;;22.76;33.40
48035;BME280;33812;46.480;6.834;2023-02-17T17:14:46;94878.19;;;22.76;33.90
48035;BME280;33812;46.480;6.834;2023-02-17T17:18:48;94878.19;;;22.76;33.97
48035;BME280;33812;46.480;6.834;2023-02-17T17:22:51;94882.16;;;22.75;33.88
48035;BME280;33812;46.480;6.834;2023-02-17T17:26:53;94885.72;;;22.76;33.89
48035;BME280;33812;46.480;6.834;2023-02-17T17:30:56;94886.50;;;22.76;33.47
48035;BME280;33812;46.480;6.834;2023-02-17T17:34:58;94895.59;;;22.77;33.95
48035;BME280;33812;46.480;6.834;2023-02-17T17:39:13;94891.63;;;22.78;34.56
48035;BME280;33812;46.480;6.834;2023-02-17T17:43:16;94890.03;;;22.77;34.90
48035;BME280;33812;46.480;6.834;2023-02-17T17:47:25;94892.38;;;22.78;34.95
48035;BME280;33812;46.480;6.834;2023-02-17T17:51:37;94894.75;;;22.80;34.77
48035;BME280;33812;46.480;6.834;2023-02-17T17:55:45;94893.97;;;22.79;34.99
48035;BME280;33812;46.480;6.834;2023-02-17T17:59:55;94893.19;;;22.79;34.95
48035;BME280;33812;46.480;6.834;2023-02-17T18:03:58;94897.53;;;22.80;35.50
48035;BME280;33812;46.480;6.834;2023-02-17T18:08:01;94907.41;;;22.81;35.16
48035;BME280;33812;46.480;6.834;2023-02-17T18:12:06;94902.28;;;22.79;34.59
48035;BME280;33812;46.480;6.834;2023-02-17T18:16:09;94909.81;;;22.79;34.08
48035;BME280;33812;46.480;6.834;2023-02-17T18:20:13;94901.91;;;22.77;33.30
48035;BME280;33812;46.480;6.834;2023-02-17T18:24:15;94904.25;;;22.79;34.34
48035;BME280;33812;46.480;6.834;2023-02-17T18:28:17;94902.28;;;22.79;36.52
48035;BME280;33812;46.480;6.834;2023-02-17T18:32:20;94910.19;;;22.81;37.12
48035;BME280;33812;46.480;6.834;2023-02-17T18:36:25;94914.94;;;22.80;37.13
48035;BME280;33812;46.480;6.834;2023-02-17T18:40:29;94912.94;;;22.81;37.42
48035;BME280;33812;46.480;6.834;2023-02-17T18:44:31;94916.94;;;22.80;37.64
48035;BME280;33812;46.480;6.834;2023-02-17T18:48:33;94914.94;;;22.80;38.00
48035;BME280;33812;46.480;6.834;2023-02-17T18:52:36;94909.81;;;22.79;37.55
48035;BME280;33812;46.480;6.834;2023-02-17T18:56:38;94921.63;;;22.83;37.61
48035;BME280;33812;46.480;6.834;2023-02-17T19:00:40;94920.03;;;22.82;37.67
48035;BME280;33812;46.480;6.834;2023-02-17T19:04:42;94927.59;;;22.81;37.48
48035;BME280;33812;46.480;6.834;2023-02-17T19:08:46;94925.59;;;22.82;37.09
48035;BME280;33812;46.480;6.834;2023-02-17T19:13:03;94928.25;;;22.65;32.56
48035;BME280;33812;46.480;6.834;2023-02-17T19:17:05;94925.69;;;21.57;30.42
48035;BME280;33812;46.480;6.834;2023-02-17T19:21:15;94926.28;;;22.07;31.51
48035;BME280;33812;46.480;6.834;2023-02-17T19:25:19;94919.88;;;22.41;32.17
48035;BME280;33812;46.480;6.834;2023-02-17T19:29:39;94932.34;;;22.53;32.38
48035;BME280;33812;46.480;6.834;2023-02-17T19:33:42;94928.75;;;22.56;32.58
48035;BME280;33812;46.480;6.834;2023-02-17T19:37:52;94923.16;;;22.60;32.85
48035;BME280;33812;46.480;6.834;2023-02-17T19:41:55;94924.69;;;22.61;33.67
48035;BME280;33812;46.480;6.834;2023-02-17T19:45:57;94925.91;;;22.64;34.84
48035;BME280;33812;46.480;6.834;2023-02-17T19:49:59;94926.69;;;22.64;35.28
48035;BME280;33812;46.480;6.834;2023-02-17T19:54:01;94931.38;;;22.67;35.30
48035;BME280;33812;46.480;6.834;2023-02-17T19:58:04;94920.28;;;22.67;35.91
48035;BME280;33812;46.480;6.834;2023-02-17T20:02:08;94926.22;;;22.69;35.63
48035;BME280;33812;46.480;6.834;2023-02-17T20:06:14;94920.28;;;22.67;35.86
48035;BME280;33812;46.480;6.834;2023-02-17T20:10:16;94926.97;;;22.70;36.54
48035;BME280;33812;46.480;6.834;2023-02-17T20:14:20;94927.34;;;22.72;36.71
48035;BME280;33812;46.480;6.834;2023-02-17T20:18:22;94924.19;;;22.70;36.76
48035;BME280;33812;46.480;6.834;2023-02-17T20:22:30;94932.09;;;22.72;37.14
48035;BME280;33812;46.480;6.834;2023-02-17T20:26:33;94942.41;;;22.71;37.10
48035;BME280;33812;46.480;6.834;2023-02-17T20:30:39;94939.63;;;22.71;37.36
48035;BME280;33812;46.480;6.834;2023-02-17T20:34:43;94942.75;;;22.73;37.20
48035;BME280;33812;46.480;6.834;2023-02-17T20:38:47;94944.75;;;22.73;37.38
48035;BME280;33812;46.480;6.834;2023-02-17T20:42:49;94947.97;;;22.71;37.66
48035;BME280;33812;46.480;6.834;2023-02-17T20:46:52;94935.22;;;22.74;37.61
48035;BME280;33812;46.480;6.834;2023-02-17T20:50:57;94941.56;;;22.74;37.42
48035;BME280;33812;46.480;6.834;2023-02-17T20:55:00;94934.44;;;22.73;37.68
48035;BME280;33812;46.480;6.834;2023-02-17T20:59:02;94938.78;;;22.74;37.28
48035;BME280;33812;46.480;6.834;2023-02-17T21:03:07;94932.09;;;22.72;37.54
48035;BME280;33812;46.480;6.834;2023-02-17T21:07:11;94930.91;;;22.73;37.64
48035;BME280;33812;46.480;6.834;2023-02-17T21:11:19;94931.28;;;22.75;37.60
48035;BME280;33812;46.480;6.834;2023-02-17T21:15:21;94926.13;;;22.73;37.47
48035;BME280;33812;46.480;6.834;2023-02-17T21:19:24;94917.81;;;22.73;37.46
48035;BME280;33812;46.480;6.834;2023-02-17T21:23:32;94917.81;;;22.73;37.17
48035;BME280;33812;46.480;6.834;2023-02-17T21:27:47;94924.16;;;22.74;37.82
48035;BME280;33812;46.480;6.834;2023-02-17T21:31:48;94921.38;;;22.74;37.62
48035;BME280;33812;46.480;6.834;2023-02-17T21:35:54;94917.81;;;22.73;37.58
48035;BME280;33812;46.480;6.834;2023-02-17T21:39:56;94921.78;;;22.72;37.81
48035;BME280;33812;46.480;6.834;2023-02-17T21:43:58;94910.72;;;22.72;37.32
48035;BME280;33812;46.480;6.834;2023-02-17T21:48:18;94917.81;;;22.73;37.52
48035;BME280;33812;46.480;6.834;2023-02-17T21:52:22;94917.03;;;22.73;37.27
48035;BME280;33812;46.480;6.834;2023-02-17T21:56:24;94915.84;;;22.74;37.47
48035;BME280;33812;46.480;6.834;2023-02-17T22:00:26;94909.16;;;22.71;37.35
48035;BME280;33812;46.480;6.834;2023-02-17T22:04:27;94913.91;;;22.70;37.46